createdAt,value
2022-11-07T00:00:25.777Z,17.33
2022-11-07T00:02:52.503Z,17.87
2022-11-07T00:05:19.764Z,17.93
2022-11-07T00:07:46.375Z,18.10
2022-11-07T00:10:13.008Z,20.83
2022-11-07T00:12:39.832Z,20.70
2022-11-07T00:15:07.385Z,15.73
2022-11-07T00:17:33.980Z,18.60
2022-11-07T00:20:00.606Z,16.67
2022-11-07T00:22:27.936Z,17.67
2022-11-07T00:24:54.967Z,17.27
2022-11-07T00:27:21.904Z,19.43
2022-11-07T00:29:48.520Z,20.03
2022-11-07T00:32:15.426Z,16.37
2022-11-07T00:34:44.145Z,16.27
2022-11-07T00:37:12.763Z,18.00
2022-11-07T00:39:40.015Z,16.33
2022-11-07T00:42:06.963Z,16.67
2022-11-07T00:44:34.282Z,18.87
2022-11-07T00:47:03.770Z,18.80
2022-11-07T00:49:30.711Z,20.47
2022-11-07T00:51:57.267Z,17.13
2022-11-07T00:54:24.278Z,19.93
2022-11-07T00:56:51.501Z,18.23
2022-11-07T00:59:18.196Z,21.10
2022-11-07T01:01:45.286Z,19.93
2022-11-07T01:04:43.323Z,22.23
2022-11-07T01:07:09.939Z,18.93
2022-11-07T01:09:36.863Z,18.87
2022-11-07T01:12:05.220Z,19.77
2022-11-07T01:14:32.085Z,20.40
2022-11-07T01:16:58.816Z,19.70
2022-11-07T01:19:25.753Z,18.23
2022-11-07T01:21:53.102Z,19.10
2022-11-07T01:24:19.794Z,16.23
2022-11-07T01:26:47.453Z,18.47
2022-11-07T01:29:17.276Z,17.87
2022-11-07T01:31:44.043Z,20.00
2022-11-07T01:34:10.892Z,18.87
2022-11-07T01:36:37.767Z,18.80
2022-11-07T01:39:05.180Z,18.00
2022-11-07T01:41:34.022Z,18.73
2022-11-07T01:44:02.617Z,18.60
2022-11-07T01:46:32.045Z,16.63
2022-11-07T01:49:07.286Z,18.77
2022-11-07T01:51:39.841Z,18.07
2022-11-07T01:54:07.065Z,18.93
2022-11-07T01:56:37.082Z,17.87
2022-11-07T01:59:04.859Z,17.00
2022-11-07T02:01:32.536Z,17.87
2022-11-07T02:03:59.777Z,17.00
2022-11-07T02:06:35.033Z,19.20
2022-11-07T02:09:01.645Z,18.00
2022-11-07T02:11:28.559Z,18.47
2022-11-07T02:13:55.543Z,19.03
2022-11-07T02:16:22.380Z,18.73
2022-11-07T02:18:49.804Z,20.23
2022-11-07T02:21:28.105Z,19.17
2022-11-07T02:23:58.502Z,20.40
2022-11-07T02:26:27.368Z,16.70
2022-11-07T02:28:55.983Z,17.83
2022-11-07T02:31:22.583Z,15.63
2022-11-07T02:33:49.213Z,17.60
2022-11-07T02:36:18.823Z,16.43
2022-11-07T02:38:48.881Z,18.50
2022-11-07T02:41:19.242Z,18.20
2022-11-07T02:43:51.287Z,15.53
2022-11-07T02:46:18.301Z,19.33
2022-11-07T02:48:48.503Z,18.97
2022-11-07T02:51:15.359Z,19.33
2022-11-07T02:53:42.386Z,20.97
2022-11-07T02:56:09.338Z,17.43
2022-11-07T02:58:36.389Z,16.73
2022-11-07T03:01:09.487Z,17.73
2022-11-07T03:03:38.361Z,18.23
2022-11-07T03:06:05.996Z,17.70
2022-11-07T03:08:32.578Z,15.90
2022-11-07T03:10:59.198Z,19.57
2022-11-07T03:13:26.133Z,16.47
2022-11-07T03:15:53.687Z,16.97
2022-11-07T03:18:21.266Z,15.10
2022-11-07T03:20:48.204Z,16.83
2022-11-07T03:23:15.390Z,15.47
2022-11-07T03:25:42.738Z,16.03
2022-11-07T03:28:09.321Z,15.40
2022-11-07T03:30:39.492Z,16.70
2022-11-07T03:33:06.119Z,14.43
2022-11-07T03:35:33.405Z,13.90
2022-11-07T03:37:59.998Z,14.83
2022-11-07T03:40:26.618Z,14.83
2022-11-07T03:42:53.247Z,14.97
2022-11-07T03:45:19.902Z,17.20
2022-11-07T03:47:46.877Z,12.77
2022-11-07T03:50:16.245Z,13.50
2022-11-07T03:52:43.816Z,12.40
2022-11-07T03:55:10.451Z,10.90
2022-11-07T03:57:37.326Z,12.20
2022-11-07T04:00:08.144Z,13.07
2022-11-07T04:02:34.983Z,10.03
2022-11-07T04:05:02.045Z,12.13
2022-11-07T04:07:29.844Z,11.53
2022-11-07T04:09:57.147Z,12.33
2022-11-07T04:12:41.911Z,11.43
2022-11-07T04:15:28.072Z,11.57
2022-11-07T04:17:57.498Z,11.70
2022-11-07T04:20:24.377Z,11.10
2022-11-07T04:22:50.977Z,9.57
2022-11-07T04:25:38.334Z,11.50
2022-11-07T04:28:04.879Z,11.50
2022-11-07T04:30:31.500Z,11.43
2022-11-07T04:32:59.726Z,8.63
2022-11-07T04:35:28.128Z,9.90
2022-11-07T04:37:55.098Z,9.23
2022-11-07T04:40:22.632Z,10.50
2022-11-07T04:42:49.890Z,9.50
2022-11-07T04:45:17.603Z,10.43
2022-11-07T04:47:44.367Z,10.53
2022-11-07T04:50:12.724Z,8.57
2022-11-07T04:52:39.720Z,9.17
2022-11-07T04:55:08.066Z,9.63
2022-11-07T04:57:35.487Z,8.00
2022-11-07T05:00:03.899Z,9.47
2022-11-07T05:02:30.676Z,9.63
2022-11-07T05:04:57.307Z,9.77
2022-11-07T05:07:24.189Z,10.57
2022-11-07T05:09:51.077Z,8.17
2022-11-07T05:12:17.713Z,10.73
2022-11-07T05:14:45.241Z,9.00
2022-11-07T05:17:14.114Z,7.63
2022-11-07T05:19:42.433Z,11.13
2022-11-07T05:22:27.665Z,9.40
2022-11-07T05:24:54.249Z,10.00
2022-11-07T05:27:21.369Z,8.17
2022-11-07T05:29:48.960Z,9.03
2022-11-07T05:32:16.077Z,8.93
2022-11-07T05:34:42.766Z,8.03
2022-11-07T05:37:10.304Z,7.97
2022-11-07T05:39:37.275Z,7.13
2022-11-07T05:42:04.870Z,8.23
2022-11-07T05:44:31.507Z,7.83
2022-11-07T05:46:59.197Z,7.70
2022-11-07T05:49:25.872Z,8.27
2022-11-07T05:51:52.924Z,8.43
2022-11-07T05:54:19.728Z,9.53
2022-11-07T05:56:46.618Z,10.13
2022-11-07T05:59:14.367Z,7.57
2022-11-07T06:01:41.505Z,8.17
2022-11-07T06:04:09.151Z,7.37
2022-11-07T06:06:35.730Z,7.13
2022-11-07T06:09:02.354Z,9.33
2022-11-07T06:11:28.986Z,9.93
2022-11-07T06:13:55.638Z,7.67
2022-11-07T06:16:22.372Z,8.97
2022-11-07T06:18:49.733Z,8.87
2022-11-07T06:21:17.301Z,7.83
2022-11-07T06:23:43.889Z,6.57
2022-11-07T06:26:10.872Z,8.03
2022-11-07T06:28:37.777Z,8.53
2022-11-07T06:31:05.102Z,8.83
2022-11-07T06:33:32.677Z,8.93
2022-11-07T06:36:05.996Z,7.00
2022-11-07T06:38:33.506Z,7.70
2022-11-07T06:41:06.052Z,7.13
2022-11-07T06:43:33.903Z,6.93
2022-11-07T06:46:03.267Z,8.13
2022-11-07T06:48:30.234Z,6.90
2022-11-07T06:50:57.826Z,7.27
2022-11-07T06:53:24.894Z,7.97
2022-11-07T06:55:52.814Z,9.83
2022-11-07T06:58:19.978Z,5.97
2022-11-07T07:00:46.948Z,7.10
2022-11-07T07:03:14.163Z,7.20
2022-11-07T07:05:41.210Z,8.23
2022-11-07T07:08:09.809Z,6.60
2022-11-07T07:10:39.538Z,6.13
2022-11-07T07:13:06.813Z,5.87
2022-11-07T07:15:49.479Z,5.83
2022-11-07T07:18:17.334Z,6.00
2022-11-07T07:20:44.386Z,7.30
2022-11-07T07:23:11.258Z,6.60
2022-11-07T07:25:38.157Z,6.77
2022-11-07T07:28:05.081Z,8.80
2022-11-07T07:30:32.318Z,8.87
2022-11-07T07:33:00.580Z,11.10
2022-11-07T07:35:28.740Z,12.73
2022-11-07T07:37:55.413Z,8.20
2022-11-07T07:40:22.439Z,6.07
2022-11-07T07:42:49.686Z,4.77
2022-11-07T07:45:16.606Z,5.20
2022-11-07T07:47:44.097Z,6.63
2022-11-07T07:50:12.103Z,5.63
2022-11-07T07:52:38.975Z,8.37
2022-11-07T07:55:07.200Z,4.67
2022-11-07T07:57:38.694Z,4.70
2022-11-07T08:00:06.281Z,4.90
2022-11-07T08:02:33.019Z,5.90
2022-11-07T08:05:00.764Z,4.07
2022-11-07T08:07:27.682Z,5.60
2022-11-07T08:09:54.546Z,5.10
2022-11-07T08:12:21.484Z,3.87
2022-11-07T08:14:48.089Z,4.57
2022-11-07T08:17:14.984Z,5.03
2022-11-07T08:19:41.845Z,4.60
2022-11-07T08:22:10.742Z,7.90
2022-11-07T08:24:37.406Z,4.93
2022-11-07T08:27:04.351Z,5.23
2022-11-07T08:29:31.276Z,5.13
2022-11-07T08:31:58.368Z,4.30
2022-11-07T08:34:25.355Z,5.00
2022-11-07T08:36:52.637Z,3.87
2022-11-07T08:39:19.893Z,5.27
2022-11-07T08:41:46.542Z,4.73
2022-11-07T08:44:13.211Z,4.10
2022-11-07T08:46:40.114Z,4.60
2022-11-07T08:49:06.956Z,6.63
2022-11-07T08:51:33.876Z,6.43
2022-11-07T08:54:00.742Z,4.13
2022-11-07T08:56:28.047Z,3.70
2022-11-07T08:58:55.117Z,3.03
2022-11-07T09:01:21.908Z,2.50
2022-11-07T09:03:56.561Z,3.13
2022-11-07T09:06:24.731Z,3.23
2022-11-07T09:08:51.646Z,2.77
2022-11-07T09:11:18.794Z,4.77
2022-11-07T09:13:46.766Z,3.57
2022-11-07T09:16:16.576Z,3.60
2022-11-07T09:18:43.994Z,5.70
2022-11-07T09:21:11.131Z,2.53
2022-11-07T09:23:38.123Z,5.30
2022-11-07T09:26:05.436Z,4.97
2022-11-07T09:28:32.769Z,2.60
2022-11-07T09:31:02.330Z,2.70
2022-11-07T09:33:29.719Z,4.70
2022-11-07T09:35:58.922Z,6.47
2022-11-07T09:38:26.100Z,5.20
2022-11-07T09:41:03.202Z,3.27
2022-11-07T09:43:47.310Z,3.70
2022-11-07T09:46:27.611Z,2.63
2022-11-07T09:48:58.152Z,4.57
2022-11-07T09:51:30.637Z,10.37
2022-11-07T09:54:01.269Z,2.80
2022-11-07T09:56:31.322Z,4.60
2022-11-07T09:59:06.541Z,2.80
2022-11-07T10:01:35.923Z,4.73
2022-11-07T10:04:24.086Z,2.13
2022-11-07T10:06:55.691Z,2.53
2022-11-07T10:09:31.921Z,3.67
2022-11-07T10:12:07.325Z,2.60
2022-11-07T10:14:42.818Z,2.60
2022-11-07T10:17:18.963Z,4.13
2022-11-07T10:20:08.157Z,4.73
2022-11-07T10:22:52.143Z,2.60
2022-11-07T10:25:22.271Z,3.17
2022-11-07T10:28:00.080Z,3.30
2022-11-07T10:30:26.942Z,3.17
2022-11-07T10:33:03.027Z,3.10
2022-11-07T10:35:31.741Z,4.00
2022-11-07T10:38:00.529Z,3.03
2022-11-07T10:40:34.251Z,4.53
2022-11-07T10:43:05.287Z,6.30
2022-11-07T10:45:33.085Z,4.60
2022-11-07T10:48:02.234Z,4.37
2022-11-07T10:50:29.936Z,6.20
2022-11-07T10:52:58.508Z,3.33
2022-11-07T10:55:26.212Z,4.43
2022-11-07T10:57:59.098Z,3.27
2022-11-07T11:00:27.749Z,3.47
2022-11-07T11:02:56.127Z,5.03
2022-11-07T11:05:32.410Z,2.50
2022-11-07T11:08:14.047Z,2.87
2022-11-07T11:10:41.564Z,2.80
2022-11-07T11:13:26.780Z,2.50
2022-11-07T11:15:55.046Z,2.77
2022-11-07T11:18:21.898Z,2.23
2022-11-07T11:20:59.615Z,2.70
2022-11-07T11:23:29.633Z,4.77
2022-11-07T11:26:00.051Z,1.83
2022-11-07T11:28:31.456Z,3.07
2022-11-07T11:31:02.434Z,3.33
2022-11-07T11:33:37.162Z,4.73
2022-11-07T11:36:11.387Z,6.03
2022-11-07T11:38:38.501Z,3.07
2022-11-07T11:41:13.843Z,2.43
2022-11-07T11:43:46.960Z,2.60
2022-11-07T11:46:20.042Z,3.33
2022-11-07T11:48:51.068Z,2.97
2022-11-07T11:51:37.281Z,3.17
2022-11-07T11:54:07.992Z,4.60
2022-11-07T11:56:47.797Z,4.07
2022-11-07T11:59:50.278Z,2.57
2022-11-07T12:02:41.909Z,3.30
2022-11-07T12:05:24.039Z,1.87
2022-11-07T12:08:01.771Z,2.90
2022-11-07T12:10:39.350Z,4.13
2022-11-07T12:13:32.921Z,3.07
2022-11-07T12:16:18.302Z,4.50
2022-11-07T12:18:49.407Z,4.43
2022-11-07T12:21:28.354Z,2.77
2022-11-07T12:24:08.429Z,1.73
2022-11-07T12:26:38.932Z,4.00
2022-11-07T12:29:17.321Z,3.73
2022-11-07T12:31:55.277Z,6.67
2022-11-07T12:34:33.909Z,4.50
2022-11-07T12:37:20.101Z,2.77
2022-11-07T12:39:58.729Z,3.73
2022-11-07T12:42:39.062Z,6.03
2022-11-07T12:45:15.546Z,2.27
2022-11-07T12:48:00.759Z,5.27
2022-11-07T12:50:38.356Z,6.37
2022-11-07T12:53:16.469Z,4.63
2022-11-07T12:55:48.129Z,4.60
2022-11-07T12:58:18.977Z,5.03
2022-11-07T13:00:46.500Z,3.40
2022-11-07T13:03:38.694Z,2.27
2022-11-07T13:06:14.626Z,3.53
2022-11-07T13:08:48.270Z,4.23
2022-11-07T13:11:24.109Z,4.17
2022-11-07T13:14:03.546Z,2.70
2022-11-07T13:16:33.365Z,6.10
2022-11-07T13:19:11.242Z,4.17
2022-11-07T13:21:42.075Z,3.70
2022-11-07T13:24:18.775Z,3.17
2022-11-07T13:26:47.761Z,3.70
2022-11-07T13:29:36.375Z,4.87
2022-11-07T13:32:08.452Z,3.93
2022-11-07T13:34:47.042Z,4.87
2022-11-07T13:37:19.039Z,5.47
2022-11-07T13:39:49.357Z,2.13
2022-11-07T13:42:18.499Z,5.53
2022-11-07T13:44:52.687Z,7.17
2022-11-07T13:47:25.813Z,5.60
2022-11-07T13:49:57.821Z,7.30
2022-11-07T13:52:34.719Z,6.33
2022-11-07T13:55:08.958Z,7.13
2022-11-07T13:57:40.378Z,4.13
2022-11-07T14:00:13.881Z,5.67
2022-11-07T14:02:50.392Z,6.17
2022-11-07T14:05:18.337Z,5.43
2022-11-07T14:07:48.636Z,4.27
2022-11-07T14:10:23.497Z,3.47
2022-11-07T14:13:02.205Z,5.93
2022-11-07T14:15:30.279Z,4.43
2022-11-07T14:17:57.261Z,5.83
2022-11-07T14:20:24.290Z,6.20
2022-11-07T14:22:53.354Z,3.60
2022-11-07T14:25:26.311Z,5.07
2022-11-07T14:27:53.621Z,3.17
2022-11-07T14:30:21.907Z,4.40
2022-11-07T14:32:50.339Z,7.63
2022-11-07T14:35:19.598Z,5.80
2022-11-07T14:37:46.658Z,5.87
2022-11-07T14:40:13.625Z,3.67
2022-11-07T14:42:42.096Z,3.60
2022-11-07T14:45:15.133Z,7.07
2022-11-07T14:47:42.782Z,7.73
2022-11-07T14:50:15.094Z,4.30
2022-11-07T14:52:46.989Z,5.60
2022-11-07T14:55:19.863Z,2.77
2022-11-07T14:57:47.355Z,3.97
2022-11-07T15:00:18.979Z,4.57
2022-11-07T15:02:48.626Z,6.00
2022-11-07T15:08:40.328Z,6.43
2022-11-07T15:11:21.200Z,2.83
2022-11-07T15:13:48.203Z,8.67
2022-11-07T15:16:18.108Z,4.90
2022-11-07T15:18:48.284Z,4.47
2022-11-07T15:21:29.528Z,6.67
2022-11-07T15:23:57.007Z,5.80
2022-11-07T15:26:29.099Z,4.07
2022-11-07T15:29:12.176Z,6.40
2022-11-07T15:31:46.471Z,7.53
2022-11-07T15:34:15.773Z,6.33
2022-11-07T15:36:42.816Z,5.07
2022-11-07T15:39:10.043Z,3.83
2022-11-07T15:41:37.288Z,6.07
2022-11-07T15:44:04.269Z,6.00
2022-11-07T15:46:34.905Z,6.10
2022-11-07T15:49:02.865Z,3.57
2022-11-07T15:51:29.766Z,6.00
2022-11-07T15:54:00.285Z,7.30
2022-11-07T15:56:28.410Z,2.63
2022-11-07T15:58:55.662Z,4.67
2022-11-07T16:01:22.923Z,4.33
2022-11-07T16:03:49.945Z,6.70
2022-11-07T16:06:25.561Z,5.13
2022-11-07T16:08:52.676Z,4.00
2022-11-07T16:11:19.654Z,6.93
2022-11-07T16:13:46.737Z,4.47
2022-11-07T16:16:18.776Z,3.97
2022-11-07T16:18:46.655Z,6.43
2022-11-07T16:21:13.385Z,6.00
2022-11-07T16:23:41.691Z,4.47
2022-11-07T16:26:10.447Z,5.20
2022-11-07T16:28:40.430Z,4.73
2022-11-07T16:31:07.687Z,5.30
2022-11-07T16:33:34.671Z,4.67
2022-11-07T16:36:03.404Z,6.50
2022-11-07T16:38:35.278Z,4.03
2022-11-07T16:41:02.992Z,4.20
2022-11-07T16:43:34.152Z,5.00
2022-11-07T16:46:01.098Z,3.60
2022-11-07T16:48:30.317Z,5.20
2022-11-07T16:50:57.318Z,4.23
2022-11-07T16:53:25.137Z,5.23
2022-11-07T16:55:54.787Z,6.53
2022-11-07T16:58:29.955Z,7.83
2022-11-07T17:00:58.114Z,4.03
2022-11-07T17:03:26.201Z,4.27
2022-11-07T17:05:53.461Z,6.67
2022-11-07T17:08:24.101Z,5.37
2022-11-07T17:10:54.610Z,4.33
2022-11-07T17:13:22.600Z,4.63
2022-11-07T17:15:50.163Z,7.60
2022-11-07T17:18:18.954Z,5.47
2022-11-07T17:20:51.415Z,5.53
2022-11-07T17:23:19.041Z,5.33
2022-11-07T17:25:50.040Z,5.73
2022-11-07T17:28:17.330Z,4.23
2022-11-07T17:30:44.796Z,5.00
2022-11-07T17:33:12.219Z,5.07
2022-11-07T17:35:39.342Z,5.83
2022-11-07T17:38:09.800Z,6.37
2022-11-07T17:40:36.523Z,7.87
2022-11-07T17:43:03.486Z,4.53
2022-11-07T17:45:30.679Z,4.77
2022-11-07T17:48:13.664Z,3.77
2022-11-07T17:50:58.401Z,5.37
2022-11-07T17:53:25.333Z,4.23
2022-11-07T17:55:52.249Z,8.93
2022-11-07T17:58:19.406Z,6.60
2022-11-07T18:00:47.616Z,6.03
2022-11-07T18:03:14.505Z,6.70
2022-11-07T18:05:42.136Z,6.57
2022-11-07T18:08:19.597Z,5.47
2022-11-07T18:10:56.403Z,8.47
2022-11-07T18:13:23.603Z,4.83
2022-11-07T18:15:50.671Z,7.53
2022-11-07T18:18:17.802Z,5.37
2022-11-07T18:20:45.326Z,4.13
2022-11-07T18:23:11.987Z,5.87
2022-11-07T18:25:38.889Z,9.50
2022-11-07T18:28:06.440Z,7.70
2022-11-07T18:30:35.579Z,4.57
2022-11-07T18:33:02.681Z,5.30
2022-11-07T18:38:16.887Z,6.13
2022-11-07T18:40:57.521Z,8.07
2022-11-07T18:43:26.218Z,6.77
2022-11-07T18:45:53.109Z,6.73
2022-11-07T18:48:20.637Z,6.93
2022-11-07T18:50:48.239Z,4.40
2022-11-07T18:53:18.167Z,6.20
2022-11-07T18:55:55.571Z,3.47
2022-11-07T18:58:22.941Z,9.67
2022-11-07T19:00:49.867Z,6.87
2022-11-07T19:03:17.299Z,5.10
2022-11-07T19:05:44.491Z,5.30
2022-11-07T19:08:11.405Z,6.13
2022-11-07T19:10:39.096Z,6.17
2022-11-07T19:15:48.682Z,5.07
2022-11-07T19:18:49.169Z,9.07
2022-11-07T19:21:51.016Z,5.40
2022-11-07T19:24:30.500Z,4.63
2022-11-07T19:27:00.235Z,7.37
2022-11-07T19:29:33.425Z,6.30
2022-11-07T19:32:05.492Z,5.20
2022-11-07T19:34:33.424Z,8.03
2022-11-07T19:37:01.293Z,7.13
2022-11-07T19:39:32.429Z,7.43
2022-11-07T19:42:08.955Z,7.40
2022-11-07T19:44:50.508Z,3.93
2022-11-07T19:47:23.755Z,7.87
2022-11-07T19:54:14.086Z,6.87
2022-11-07T19:56:41.508Z,4.90
2022-11-07T19:59:15.188Z,4.23
2022-11-07T20:08:19.210Z,6.37
2022-11-07T20:10:52.363Z,6.50
2022-11-07T20:13:23.934Z,3.87
2022-11-07T20:15:59.391Z,3.23
2022-11-07T20:18:28.181Z,3.77
2022-11-07T20:24:10.190Z,3.87
2022-11-07T20:26:39.894Z,6.43
2022-11-07T20:29:07.914Z,4.20
2022-11-07T20:31:55.752Z,5.07
2022-11-07T20:34:23.821Z,5.57
2022-11-07T20:36:53.744Z,4.63
2022-11-07T20:39:24.013Z,6.33
2022-11-07T20:41:51.085Z,4.30
2022-11-07T20:44:22.459Z,4.10
2022-11-07T20:47:05.144Z,4.97
2022-11-07T20:49:36.525Z,6.20
2022-11-07T20:52:04.115Z,4.10
2022-11-07T20:54:31.480Z,11.97
2022-11-07T20:57:22.410Z,5.23
2022-11-07T20:59:52.497Z,3.60
2022-11-07T21:02:23.560Z,5.27
2022-11-07T21:05:16.643Z,8.50
2022-11-07T21:07:43.720Z,7.80
2022-11-07T21:10:23.959Z,9.23
2022-11-07T21:12:52.172Z,5.73
2022-11-07T21:15:20.444Z,3.57
2022-11-07T21:17:48.062Z,4.80
2022-11-07T21:20:15.793Z,6.97
2022-11-07T21:22:49.234Z,6.07
2022-11-07T21:25:16.656Z,6.17
2022-11-07T21:27:43.377Z,3.70
2022-11-07T21:30:10.595Z,4.63
2022-11-07T21:32:37.688Z,5.83
2022-11-07T21:35:06.224Z,3.60
2022-11-07T21:37:33.182Z,6.23
2022-11-07T21:40:00.166Z,5.80
2022-11-07T21:42:26.962Z,5.83
2022-11-07T21:44:54.070Z,3.50
2022-11-07T21:47:21.362Z,7.20
2022-11-07T21:49:48.674Z,6.10
2022-11-07T21:52:16.881Z,6.13
2022-11-07T21:54:43.945Z,5.47
2022-11-07T21:57:13.857Z,4.80
2022-11-07T21:59:40.800Z,6.17
2022-11-07T22:02:07.867Z,8.07
2022-11-07T22:04:35.699Z,3.27
2022-11-07T22:07:02.673Z,9.40
2022-11-07T22:09:30.282Z,5.33
2022-11-07T22:11:59.750Z,4.87
2022-11-07T22:14:27.863Z,4.13
2022-11-07T22:16:56.079Z,6.60
2022-11-07T22:19:29.463Z,3.87
2022-11-07T22:21:56.409Z,7.23
2022-11-07T22:24:26.979Z,3.53
2022-11-07T22:26:55.106Z,5.30
2022-11-07T22:29:21.869Z,9.63
2022-11-07T22:31:48.946Z,5.63
2022-11-07T22:34:16.158Z,6.13
2022-11-07T22:36:43.112Z,4.50
2022-11-07T22:39:10.200Z,6.33
2022-11-07T22:41:37.283Z,5.87
2022-11-07T22:44:05.076Z,4.40
2022-11-07T22:46:35.680Z,6.30
2022-11-07T22:49:04.707Z,6.23
2022-11-07T22:51:33.230Z,8.07
2022-11-07T22:54:06.198Z,5.77
2022-11-07T22:56:34.464Z,6.43
2022-11-07T22:59:01.414Z,7.07
2022-11-07T23:01:35.725Z,3.77
2022-11-07T23:04:02.953Z,4.27
2022-11-07T23:06:30.676Z,6.23
2022-11-07T23:08:58.333Z,3.63
2022-11-07T23:14:15.881Z,8.10
2022-11-07T23:16:48.076Z,3.40
2022-11-07T23:19:17.530Z,6.93
2022-11-07T23:21:44.556Z,4.13
2022-11-07T23:24:11.936Z,7.10
2022-11-07T23:26:39.876Z,4.93
2022-11-07T23:29:14.754Z,3.80
2022-11-07T23:31:42.557Z,5.77
2022-11-07T23:34:09.905Z,4.10
2022-11-07T23:36:40.033Z,9.00
2022-11-07T23:39:08.819Z,3.80
2022-11-07T23:41:35.545Z,9.47
2022-11-07T23:44:02.838Z,4.57
2022-11-07T23:46:48.098Z,3.77
2022-11-07T23:49:33.997Z,3.20
2022-11-07T23:52:00.746Z,3.27
2022-11-07T23:54:48.207Z,7.40
2022-11-07T23:57:16.841Z,6.43
